createdAt,value
2023-01-29T00:01:35.810Z,2.10
2023-01-29T00:04:03.682Z,2.10
2023-01-29T00:06:32.122Z,2.20
2023-01-29T00:09:01.356Z,2.10
2023-01-29T00:11:29.297Z,2.10
2023-01-29T00:13:57.143Z,2.30
2023-01-29T00:16:25.589Z,2.20
2023-01-29T00:18:53.392Z,2.10
2023-01-29T00:21:23.266Z,2.20
2023-01-29T00:23:51.682Z,2.10
2023-01-29T00:26:20.826Z,2.10
2023-01-29T00:28:48.663Z,2.20
2023-01-29T00:31:18.853Z,2.20
2023-01-29T00:33:46.908Z,2.40
2023-01-29T00:36:16.569Z,2.20
2023-01-29T00:38:44.510Z,2.10
2023-01-29T00:41:31.291Z,2.00
2023-01-29T00:44:18.283Z,1.90
2023-01-29T00:46:46.488Z,1.90
2023-01-29T00:49:14.396Z,1.90
2023-01-29T00:51:42.400Z,1.80
2023-01-29T00:54:10.413Z,1.70
2023-01-29T00:56:38.559Z,1.80
2023-01-29T00:59:07.726Z,1.70
2023-01-29T01:01:53.196Z,1.70
2023-01-29T01:04:21.018Z,1.60
2023-01-29T01:06:48.817Z,1.60
2023-01-29T01:09:42.597Z,1.60
2023-01-29T01:12:10.367Z,1.60
2023-01-29T01:14:43.226Z,1.50
2023-01-29T01:17:11.092Z,1.50
2023-01-29T01:19:38.933Z,1.50
2023-01-29T01:22:06.747Z,1.50
2023-01-29T01:24:34.583Z,1.50
2023-01-29T01:27:02.400Z,1.60
2023-01-29T01:29:30.299Z,1.70
2023-01-29T01:31:59.864Z,1.80
2023-01-29T01:34:28.391Z,1.70
2023-01-29T01:36:56.824Z,1.60
2023-01-29T01:39:25.263Z,1.70
2023-01-29T01:41:53.649Z,1.70
2023-01-29T01:44:53.617Z,1.80
2023-01-29T01:47:30.979Z,2.00
2023-01-29T01:50:04.093Z,1.90
2023-01-29T01:52:33.581Z,1.80
2023-01-29T01:55:01.864Z,1.80
2023-01-29T01:57:31.755Z,1.70
2023-01-29T02:00:10.088Z,1.70
2023-01-29T02:02:58.404Z,1.90
2023-01-29T02:05:44.756Z,1.80
2023-01-29T02:08:31.155Z,1.60
2023-01-29T02:10:59.454Z,1.50
2023-01-29T02:13:27.981Z,1.30
2023-01-29T02:15:55.770Z,1.20
2023-01-29T02:18:25.001Z,1.30
2023-01-29T02:21:08.872Z,1.30
2023-01-29T02:24:00.610Z,1.20
2023-01-29T02:26:46.241Z,1.20
2023-01-29T02:29:25.232Z,1.30
2023-01-29T02:32:01.429Z,1.20
2023-01-29T02:34:57.277Z,1.20
2023-01-29T02:37:35.942Z,1.10
2023-01-29T02:40:13.496Z,1.20
2023-01-29T02:42:51.741Z,1.10
2023-01-29T02:45:28.339Z,1.20
2023-01-29T02:47:59.650Z,1.00
2023-01-29T02:50:33.899Z,0.70
2023-01-29T02:53:07.438Z,0.80
2023-01-29T02:55:39.420Z,0.60
2023-01-29T02:58:12.757Z,0.50
2023-01-29T03:00:45.509Z,0.40
2023-01-29T03:03:18.625Z,0.20
2023-01-29T03:05:57.078Z,0.20
2023-01-29T03:08:43.170Z,0.20
2023-01-29T03:11:14.037Z,0.10
2023-01-29T03:13:46.837Z,0.00
2023-01-29T03:16:21.520Z,0.10
2023-01-29T03:18:55.758Z,0.00
2023-01-29T03:21:47.482Z,0.00
2023-01-29T03:24:35.262Z,0.10
2023-01-29T03:27:24.854Z,0.30
2023-01-29T03:30:11.888Z,0.30
2023-01-29T03:32:42.372Z,0.10
2023-01-29T03:35:12.725Z,0.10
2023-01-29T03:37:45.423Z,0.00
2023-01-29T03:40:14.816Z,-0.10
2023-01-29T03:42:51.377Z,-0.20
2023-01-29T03:45:26.908Z,-0.30
2023-01-29T03:48:07.991Z,-0.40
2023-01-29T03:50:41.618Z,-0.50
2023-01-29T03:53:18.030Z,-0.60
2023-01-29T03:55:55.926Z,-0.60
2023-01-29T03:58:30.470Z,-0.70
2023-01-29T04:01:03.775Z,-0.60
2023-01-29T04:03:36.056Z,-0.70
2023-01-29T04:06:12.271Z,-0.70
2023-01-29T04:08:47.488Z,-0.70
2023-01-29T04:11:18.456Z,-0.80
2023-01-29T04:13:47.555Z,-0.80
2023-01-29T04:16:21.604Z,-0.70
2023-01-29T04:18:51.312Z,-0.80
2023-01-29T04:21:20.482Z,-0.80
2023-01-29T04:23:48.283Z,-0.80
2023-01-29T04:27:01.126Z,-0.90
2023-01-29T04:29:41.430Z,-0.90
2023-01-29T04:32:16.148Z,-0.90
2023-01-29T04:35:00.830Z,-0.90
2023-01-29T04:37:37.226Z,-0.90
2023-01-29T04:40:14.561Z,-0.80
2023-01-29T04:42:49.280Z,-0.80
2023-01-29T04:45:23.232Z,-0.90
2023-01-29T04:47:58.582Z,-0.90
2023-01-29T04:50:35.860Z,-0.90
2023-01-29T04:53:10.753Z,-0.90
2023-01-29T04:55:43.874Z,-0.80
2023-01-29T04:58:18.516Z,-0.80
2023-01-29T05:00:49.968Z,-0.80
2023-01-29T05:03:18.108Z,-0.80
2023-01-29T05:05:50.321Z,-0.70
2023-01-29T05:08:21.438Z,-0.70
2023-01-29T05:10:51.161Z,-0.80
2023-01-29T05:13:21.109Z,-0.80
2023-01-29T05:15:51.445Z,-0.80
2023-01-29T05:18:19.346Z,-0.80
2023-01-29T05:20:50.216Z,-0.80
2023-01-29T05:23:18.915Z,-0.80
2023-01-29T05:25:47.943Z,-0.80
2023-01-29T05:28:16.608Z,-0.60
2023-01-29T05:30:45.911Z,-0.60
2023-01-29T05:33:15.775Z,-0.60
2023-01-29T05:35:43.947Z,-0.70
2023-01-29T05:38:13.368Z,-0.80
2023-01-29T05:40:41.320Z,-0.90
2023-01-29T05:43:15.823Z,-0.90
2023-01-29T05:45:43.700Z,-1.00
2023-01-29T05:48:11.557Z,-1.10
2023-01-29T05:50:39.330Z,-1.10
2023-01-29T05:53:07.126Z,-1.00
2023-01-29T05:55:36.383Z,-0.70
2023-01-29T05:58:05.942Z,-0.50
2023-01-29T06:00:33.882Z,-0.60
2023-01-29T06:03:01.731Z,-0.80
2023-01-29T06:05:29.555Z,-0.60
2023-01-29T06:07:57.468Z,-0.50
2023-01-29T06:10:25.734Z,-0.60
2023-01-29T06:12:54.845Z,-0.40
2023-01-29T06:15:22.833Z,-0.50
2023-01-29T06:17:50.607Z,-0.60
2023-01-29T06:20:19.018Z,-0.70
2023-01-29T06:22:47.383Z,-0.80
2023-01-29T06:25:15.403Z,-0.80
2023-01-29T06:27:43.219Z,-0.90
2023-01-29T06:30:13.689Z,-1.00
2023-01-29T06:32:41.584Z,-1.10
2023-01-29T06:35:10.767Z,-1.10
2023-01-29T06:37:38.546Z,-1.30
2023-01-29T06:40:07.350Z,-1.40
2023-01-29T06:42:36.396Z,-1.50
2023-01-29T06:45:04.463Z,-1.50
2023-01-29T06:47:33.634Z,-1.30
2023-01-29T06:50:01.693Z,-1.50
2023-01-29T06:52:29.700Z,-1.50
2023-01-29T06:54:57.833Z,-1.30
2023-01-29T06:57:25.723Z,-1.10
2023-01-29T06:59:53.534Z,-0.90
2023-01-29T07:02:21.385Z,-1.00
2023-01-29T07:04:50.617Z,-1.10
2023-01-29T07:07:18.472Z,-1.30
2023-01-29T07:09:46.299Z,-1.60
2023-01-29T07:12:14.075Z,-1.60
2023-01-29T07:14:41.862Z,-1.60
2023-01-29T07:17:09.644Z,-1.60
2023-01-29T07:19:37.434Z,-1.50
2023-01-29T07:22:06.552Z,-1.50
2023-01-29T07:24:34.378Z,-1.60
2023-01-29T07:27:02.224Z,-1.50
2023-01-29T07:29:30.019Z,-1.20
2023-01-29T07:31:57.983Z,-1.40
2023-01-29T07:34:25.928Z,-1.40
2023-01-29T07:36:54.569Z,-1.30
2023-01-29T07:39:23.742Z,-1.20
2023-01-29T07:41:51.582Z,-1.00
2023-01-29T07:44:19.387Z,-1.00
2023-01-29T07:46:47.207Z,-0.90
2023-01-29T07:49:15.100Z,-1.00
2023-01-29T07:51:42.951Z,-0.90
2023-01-29T07:54:10.794Z,-0.80
2023-01-29T07:56:39.925Z,-0.80
2023-01-29T07:59:07.703Z,-0.70
2023-01-29T08:01:35.496Z,-0.50
2023-01-29T08:04:03.324Z,-0.50
2023-01-29T08:06:31.099Z,-0.40
2023-01-29T08:08:59.762Z,-0.50
2023-01-29T08:11:27.587Z,-0.40
2023-01-29T08:13:57.312Z,-0.40
2023-01-29T08:16:25.127Z,-0.50
2023-01-29T08:18:52.986Z,-0.50
2023-01-29T08:21:20.757Z,-0.40
2023-01-29T08:23:48.539Z,-0.40
2023-01-29T08:26:16.326Z,-0.30
2023-01-29T08:28:44.223Z,-0.30
2023-01-29T08:31:17.358Z,0.20
2023-01-29T08:33:45.170Z,0.40
2023-01-29T08:36:13.683Z,0.50
2023-01-29T08:38:41.642Z,0.30
2023-01-29T08:41:09.630Z,0.10
2023-01-29T08:43:38.523Z,0.10
2023-01-29T08:46:07.588Z,0.10
2023-01-29T08:48:37.020Z,0.30
2023-01-29T08:51:05.420Z,0.50
2023-01-29T08:53:33.857Z,0.70
2023-01-29T08:56:01.792Z,0.60
2023-01-29T08:58:29.624Z,0.70
2023-01-29T09:00:57.459Z,0.70
2023-01-29T09:03:25.271Z,0.80
2023-01-29T09:05:54.387Z,1.00
2023-01-29T09:08:22.205Z,0.90
2023-01-29T09:10:49.989Z,0.90
2023-01-29T09:13:17.761Z,0.80
2023-01-29T09:15:45.551Z,1.00
2023-01-29T09:18:13.344Z,1.00
2023-01-29T09:20:41.120Z,1.20
2023-01-29T09:23:11.541Z,1.10
2023-01-29T09:25:39.369Z,1.20
2023-01-29T09:28:07.244Z,1.40
2023-01-29T09:30:37.602Z,1.50
2023-01-29T09:33:05.899Z,1.50
2023-01-29T09:35:34.152Z,1.60
2023-01-29T09:38:02.320Z,1.80
2023-01-29T09:40:38.907Z,1.80
2023-01-29T09:43:13.832Z,1.90
2023-01-29T09:45:51.123Z,2.00
2023-01-29T09:48:21.059Z,2.20
2023-01-29T09:50:52.564Z,2.20
2023-01-29T09:53:25.192Z,2.20
2023-01-29T09:55:59.878Z,2.10
2023-01-29T09:58:33.021Z,2.20
2023-01-29T10:01:13.170Z,2.20
2023-01-29T10:03:56.875Z,2.20
2023-01-29T10:06:38.116Z,2.40
2023-01-29T10:09:33.017Z,2.60
2023-01-29T10:12:13.675Z,2.80
2023-01-29T10:14:51.375Z,3.40
2023-01-29T10:17:37.823Z,3.80
2023-01-29T10:20:33.995Z,3.90
2023-01-29T10:23:12.074Z,4.50
2023-01-29T10:25:42.337Z,5.10
2023-01-29T10:28:18.423Z,5.70
2023-01-29T10:30:50.227Z,6.00
2023-01-29T10:33:23.086Z,6.10
2023-01-29T10:35:55.891Z,6.60
2023-01-29T10:38:35.789Z,6.90
2023-01-29T10:43:48.348Z,7.50
2023-01-29T10:46:24.593Z,7.90
2023-01-29T10:49:01.799Z,8.20
2023-01-29T10:51:52.350Z,8.00
2023-01-29T10:54:39.094Z,7.80
2023-01-29T10:57:17.578Z,8.10
2023-01-29T11:00:01.585Z,8.40
2023-01-29T11:02:29.494Z,8.80
2023-01-29T11:04:57.299Z,9.00
2023-01-29T11:07:27.708Z,9.10
2023-01-29T11:10:01.703Z,9.40
2023-01-29T11:12:33.308Z,9.30
2023-01-29T11:15:07.131Z,9.10
2023-01-29T11:17:35.025Z,8.80
2023-01-29T11:20:03.102Z,8.60
2023-01-29T11:22:31.718Z,8.30
2023-01-29T11:25:16.481Z,7.60
2023-01-29T11:27:46.801Z,7.40
2023-01-29T11:30:24.209Z,7.10
2023-01-29T11:32:58.843Z,7.20
2023-01-29T11:35:27.805Z,7.10
2023-01-29T11:38:08.793Z,7.20
2023-01-29T11:40:39.434Z,7.50
2023-01-29T11:43:18.810Z,7.80
2023-01-29T11:45:49.100Z,8.00
2023-01-29T11:48:18.829Z,7.80
2023-01-29T11:50:53.322Z,7.60
2023-01-29T11:53:34.693Z,7.40
2023-01-29T11:56:05.623Z,7.50
2023-01-29T11:58:35.802Z,7.70
2023-01-29T12:01:05.886Z,7.20
2023-01-29T12:03:38.375Z,7.20
2023-01-29T12:06:09.827Z,6.70
2023-01-29T12:08:39.857Z,6.50
2023-01-29T12:11:13.590Z,6.40
2023-01-29T12:13:43.711Z,6.40
2023-01-29T12:16:20.155Z,6.40
2023-01-29T12:18:52.559Z,6.40
2023-01-29T12:21:27.900Z,6.40
2023-01-29T12:24:01.862Z,6.40
2023-01-29T12:26:33.695Z,6.30
2023-01-29T12:29:17.624Z,6.40
2023-01-29T12:31:56.276Z,6.40
2023-01-29T12:34:31.974Z,6.60
2023-01-29T12:37:05.726Z,6.50
2023-01-29T12:39:33.497Z,6.60
2023-01-29T12:42:04.912Z,6.30
2023-01-29T12:44:42.130Z,6.10
2023-01-29T12:47:17.129Z,6.20
2023-01-29T12:49:51.438Z,6.00
2023-01-29T12:52:23.507Z,5.90
2023-01-29T12:54:57.174Z,5.50
2023-01-29T12:57:40.220Z,5.40
2023-01-29T13:00:14.581Z,5.60
2023-01-29T13:02:50.844Z,5.50
2023-01-29T13:05:24.206Z,5.60
2023-01-29T13:07:58.531Z,5.60
2023-01-29T13:10:30.391Z,5.50
2023-01-29T13:13:02.555Z,5.40
2023-01-29T13:15:34.133Z,5.30
2023-01-29T13:18:24.273Z,5.20
2023-01-29T13:20:52.609Z,5.20
2023-01-29T13:23:23.540Z,5.20
2023-01-29T13:25:52.817Z,5.20
2023-01-29T13:28:24.413Z,5.20
2023-01-29T13:31:11.709Z,5.30
2023-01-29T13:33:42.328Z,5.20
2023-01-29T13:36:17.363Z,5.10
2023-01-29T13:38:46.057Z,5.10
2023-01-29T13:41:15.777Z,5.10
2023-01-29T13:43:49.943Z,4.90
2023-01-29T13:46:21.449Z,5.00
2023-01-29T13:48:54.557Z,5.20
2023-01-29T13:51:26.655Z,5.00
2023-01-29T13:53:57.345Z,4.90
2023-01-29T13:56:44.027Z,4.90
2023-01-29T13:59:24.484Z,5.10
2023-01-29T14:02:20.078Z,5.00
2023-01-29T14:04:49.261Z,4.80
2023-01-29T14:07:51.200Z,4.70
2023-01-29T14:10:21.823Z,4.60
2023-01-29T14:12:53.731Z,4.60
2023-01-29T14:15:30.269Z,4.50
2023-01-29T14:18:20.170Z,4.40
2023-01-29T14:21:04.132Z,4.50
2023-01-29T14:23:41.661Z,4.40
2023-01-29T14:26:32.105Z,4.40
2023-01-29T14:29:05.322Z,4.40
2023-01-29T14:31:43.102Z,4.40
2023-01-29T14:34:25.239Z,4.30
2023-01-29T14:36:58.171Z,4.50
2023-01-29T14:39:44.885Z,4.40
2023-01-29T14:42:24.512Z,4.50
2023-01-29T14:45:08.580Z,4.40
2023-01-29T14:48:00.702Z,4.30
2023-01-29T14:50:51.887Z,4.40
2023-01-29T14:53:33.869Z,4.40
2023-01-29T14:56:05.167Z,4.30
2023-01-29T14:58:38.975Z,4.30
2023-01-29T15:01:13.198Z,4.30
2023-01-29T15:03:45.241Z,4.20
2023-01-29T15:06:19.780Z,4.10
2023-01-29T15:08:54.881Z,4.00
2023-01-29T15:11:36.785Z,3.90
2023-01-29T15:14:14.986Z,3.90
2023-01-29T15:16:56.751Z,3.90
2023-01-29T15:19:28.987Z,3.80
2023-01-29T15:22:03.943Z,3.80
2023-01-29T15:24:33.252Z,3.80
2023-01-29T15:27:02.069Z,3.90
2023-01-29T15:29:30.647Z,4.00
2023-01-29T15:31:59.213Z,4.00
2023-01-29T15:34:27.344Z,3.90
2023-01-29T15:36:55.170Z,3.90
2023-01-29T15:39:24.982Z,3.90
2023-01-29T15:42:11.757Z,3.80
2023-01-29T15:44:46.509Z,3.80
2023-01-29T15:47:15.905Z,3.80
2023-01-29T15:49:46.473Z,3.70
2023-01-29T15:52:18.974Z,3.70
2023-01-29T15:54:47.471Z,3.60
2023-01-29T15:57:25.532Z,3.60
2023-01-29T15:59:57.434Z,3.60
2023-01-29T16:02:38.997Z,3.60
2023-01-29T16:05:12.214Z,3.60
2023-01-29T16:07:40.305Z,3.60
2023-01-29T16:10:15.332Z,3.70
2023-01-29T16:12:47.269Z,3.70
2023-01-29T16:15:29.803Z,3.50
2023-01-29T16:17:59.927Z,3.60
2023-01-29T16:20:52.656Z,3.50
2023-01-29T16:23:24.648Z,3.50
2023-01-29T16:25:53.070Z,3.50
2023-01-29T16:28:22.369Z,3.60
2023-01-29T16:30:57.591Z,3.40
2023-01-29T16:33:31.238Z,3.10
2023-01-29T16:35:59.195Z,2.80
2023-01-29T16:38:31.668Z,2.70
2023-01-29T16:41:28.334Z,2.50
2023-01-29T16:43:59.222Z,2.50
2023-01-29T16:46:33.282Z,2.50
2023-01-29T16:49:01.796Z,2.30
2023-01-29T16:51:31.409Z,2.10
2023-01-29T16:56:32.000Z,1.80
2023-01-29T16:59:03.602Z,1.70
2023-01-29T17:01:32.823Z,1.60
2023-01-29T17:04:07.672Z,1.60
2023-01-29T17:06:36.092Z,1.60
2023-01-29T17:09:05.010Z,1.50
2023-01-29T17:11:37.341Z,1.50
2023-01-29T17:14:09.460Z,1.40
2023-01-29T17:16:49.765Z,1.40
2023-01-29T17:19:20.775Z,1.30
2023-01-29T17:21:48.735Z,1.40
2023-01-29T17:24:16.561Z,1.40
2023-01-29T17:26:44.539Z,1.40
2023-01-29T17:29:18.243Z,1.30
2023-01-29T17:31:46.036Z,1.30
2023-01-29T17:34:15.750Z,1.30
2023-01-29T17:36:43.939Z,1.30
2023-01-29T17:39:18.005Z,1.30
2023-01-29T17:41:48.129Z,1.20
2023-01-29T17:44:17.563Z,1.10
2023-01-29T17:46:46.140Z,1.20
2023-01-29T17:49:22.896Z,1.20
2023-01-29T17:51:50.902Z,1.20
2023-01-29T17:54:18.873Z,1.10
2023-01-29T17:56:46.833Z,1.00
2023-01-29T17:59:17.518Z,0.90
2023-01-29T18:01:45.648Z,0.90
2023-01-29T18:04:13.643Z,0.80
2023-01-29T18:06:43.464Z,0.90
2023-01-29T18:09:14.544Z,0.80
2023-01-29T18:11:42.771Z,0.80
2023-01-29T18:14:13.933Z,0.70
2023-01-29T18:16:45.514Z,0.60
2023-01-29T18:19:20.783Z,0.50
2023-01-29T18:21:48.736Z,0.40
2023-01-29T18:24:17.099Z,0.40
2023-01-29T18:26:45.077Z,0.40
2023-01-29T18:29:12.967Z,0.40
2023-01-29T18:31:40.840Z,0.30
2023-01-29T18:34:10.009Z,0.30
2023-01-29T18:36:38.298Z,0.40
2023-01-29T18:39:06.116Z,0.30
2023-01-29T18:41:34.841Z,0.30
2023-01-29T18:44:02.655Z,0.20
2023-01-29T18:46:30.541Z,0.20
2023-01-29T18:48:58.357Z,0.30
2023-01-29T18:51:27.542Z,0.40
2023-01-29T18:53:55.371Z,0.40
2023-01-29T18:56:23.173Z,0.30
2023-01-29T18:58:55.989Z,0.20
2023-01-29T19:01:24.787Z,0.20
2023-01-29T19:03:52.814Z,0.20
2023-01-29T19:06:20.670Z,0.20
2023-01-29T19:08:49.808Z,0.10
2023-01-29T19:11:17.725Z,0.10
2023-01-29T19:13:46.072Z,0.20
2023-01-29T19:16:14.187Z,0.20
2023-01-29T19:18:42.388Z,0.10
2023-01-29T19:21:12.128Z,0.00
2023-01-29T19:23:40.382Z,-0.10
2023-01-29T19:26:11.353Z,-0.20
2023-01-29T19:28:39.200Z,0.00
2023-01-29T19:31:07.057Z,0.10
2023-01-29T19:33:35.048Z,0.10
2023-01-29T19:36:02.970Z,0.00
2023-01-29T19:38:33.466Z,0.10
2023-01-29T19:41:01.593Z,0.10
2023-01-29T19:43:31.666Z,0.00
2023-01-29T19:46:01.057Z,0.00
2023-01-29T19:48:29.540Z,0.00
2023-01-29T19:50:58.877Z,0.10
2023-01-29T19:53:28.746Z,0.20
2023-01-29T19:56:00.906Z,0.30
2023-01-29T19:58:30.975Z,0.40
2023-01-29T20:01:00.586Z,0.30
2023-01-29T20:03:29.835Z,0.20
2023-01-29T20:06:01.875Z,0.00
2023-01-29T20:08:29.738Z,0.10
2023-01-29T20:10:57.532Z,-0.10
2023-01-29T20:13:25.445Z,-0.30
2023-01-29T20:15:56.250Z,-0.30
2023-01-29T20:18:24.088Z,-0.30
2023-01-29T20:20:53.070Z,-0.30
2023-01-29T20:23:36.724Z,-0.40
2023-01-29T20:26:06.835Z,-0.50
2023-01-29T20:28:34.964Z,-0.60
2023-01-29T20:31:04.705Z,-0.60
2023-01-29T20:33:33.661Z,-0.60
2023-01-29T20:36:03.692Z,-0.60
2023-01-29T20:38:32.258Z,-0.60
2023-01-29T20:41:04.162Z,-0.60
2023-01-29T20:43:32.463Z,-0.70
2023-01-29T20:46:01.174Z,-0.70
2023-01-29T20:48:30.874Z,-0.80
2023-01-29T20:51:03.661Z,-0.80
2023-01-29T20:53:31.485Z,-0.80
2023-01-29T20:55:59.304Z,-0.80
2023-01-29T20:58:27.351Z,-0.80
2023-01-29T21:00:55.202Z,-0.70
2023-01-29T21:03:23.861Z,-0.80
2023-01-29T21:05:54.240Z,-0.80
2023-01-29T21:08:22.059Z,-0.80
2023-01-29T21:10:50.837Z,-0.90
2023-01-29T21:13:18.731Z,-1.00
2023-01-29T21:15:46.579Z,-1.00
2023-01-29T21:18:14.397Z,-1.00
2023-01-29T21:20:42.194Z,-0.80
2023-01-29T21:23:11.564Z,-0.90
2023-01-29T21:25:39.614Z,-0.90
2023-01-29T21:28:07.751Z,-1.00
2023-01-29T21:30:35.694Z,-1.00
2023-01-29T21:33:03.641Z,-1.10
2023-01-29T21:35:31.485Z,-1.00
2023-01-29T21:37:59.294Z,-1.00
2023-01-29T21:40:30.460Z,-1.00
2023-01-29T21:43:13.490Z,-1.00
2023-01-29T21:45:42.076Z,-1.10
2023-01-29T21:48:10.513Z,-1.20
2023-01-29T21:50:38.994Z,-1.20
2023-01-29T21:53:06.897Z,-1.30
2023-01-29T21:55:36.112Z,-1.20
2023-01-29T21:58:04.277Z,-1.10
2023-01-29T22:00:32.225Z,-1.10
2023-01-29T22:03:00.169Z,-1.10
2023-01-29T22:05:29.128Z,-1.10
2023-01-29T22:07:57.220Z,-1.10
2023-01-29T22:10:25.292Z,-1.10
2023-01-29T22:12:54.640Z,-1.10
2023-01-29T22:15:23.846Z,-1.20
2023-01-29T22:17:52.234Z,-1.20
2023-01-29T22:20:20.478Z,-1.20
2023-01-29T22:22:48.435Z,-1.30
2023-01-29T22:25:19.901Z,-1.20
2023-01-29T22:27:47.712Z,-1.20
2023-01-29T22:30:17.781Z,-1.10
2023-01-29T22:32:45.741Z,-1.20
2023-01-29T22:35:13.539Z,-1.20
2023-01-29T22:37:41.373Z,-1.00
2023-01-29T22:40:10.310Z,-0.90
2023-01-29T22:42:38.133Z,-1.00
2023-01-29T22:45:06.695Z,-0.90
2023-01-29T22:47:35.899Z,-0.90
2023-01-29T22:50:04.103Z,-1.00
2023-01-29T22:52:38.366Z,-1.20
2023-01-29T22:55:08.839Z,-1.30
2023-01-29T22:57:37.272Z,-1.40
2023-01-29T23:00:08.594Z,-1.30
2023-01-29T23:02:38.410Z,-1.20
2023-01-29T23:05:07.313Z,-1.10
2023-01-29T23:07:35.343Z,-1.10
2023-01-29T23:10:03.341Z,-1.10
2023-01-29T23:12:31.190Z,-1.20
2023-01-29T23:14:59.013Z,-1.30
2023-01-29T23:17:26.827Z,-1.40
2023-01-29T23:19:55.965Z,-1.30
2023-01-29T23:22:23.937Z,-1.30
2023-01-29T23:24:51.764Z,-1.30
2023-01-29T23:27:18.593Z,-1.10
2023-01-29T23:29:47.636Z,-0.90
2023-01-29T23:32:18.319Z,-1.00
2023-01-29T23:34:46.309Z,-1.10
2023-01-29T23:37:15.447Z,-1.10
2023-01-29T23:39:43.253Z,-1.20
2023-01-29T23:42:11.063Z,-1.30
2023-01-29T23:44:40.156Z,-1.30
2023-01-29T23:47:08.069Z,-1.30
2023-01-29T23:49:36.302Z,-1.40
2023-01-29T23:52:04.178Z,-1.50
2023-01-29T23:54:33.331Z,-1.50
2023-01-29T23:57:01.150Z,-1.50
2023-01-29T23:59:29.157Z,-1.40
